Flight Track Log - Related Links

Times and Time Zones

All times are in EDT time to prevent confusion due to time zone crossing. See the N749SS flight status page for this flight to view local times or setup timezone preferences in your user account.


Time Position Orientation Groundspeed Altitude Reporting Facility
EDT Latitude Longitude Course Direction KTS MPH feet Rate Location/Type
Fri 12:53:11 PM 26.1336 -81.8494 305° West 205 236 3,900  Level Miami Center
Fri 12:54:14 PM 26.1308 -81.9247 268° West 245 282 7,100 3,408 Climbing Miami Center
Fri 12:55:16 PM 26.1217 -82.0161 264° West 272 313 11,000 3,097 Climbing Miami Center
Fri 12:56:18 PM 26.1119 -82.1086 263° West 303 349 13,500 2,516 Climbing Miami Center
Fri 12:57:20 PM 26.1125 -82.2214 270° West 342 394 16,200 2,419 Climbing Miami Center
Fri 12:58:00 PM 26.1575 -82.4454 305° West  Level FlightAware Approximate
Fri 12:58:22 PM 26.1214 -82.3303 275° West 358 412 18,500  Level Miami Center
Fri 12:59:24 PM 26.1261 -82.4453 273° West 370 426 20,900 2,129 Climbing Miami Center
Fri 01:00:26 PM 26.1289 -82.5581 272° West 374 430 22,900 1,548 Climbing Miami Center
Fri 01:01:28 PM 26.1314 -82.6847 271° West 402 463 24,100 1,742 Climbing Miami Center
Fri 01:02:30 PM 26.1353 -82.8417 272° West 418 481 26,500 2,112 Climbing Miami Center
Fri 01:03:33 PM 26.1406 -82.9717 273° West 419 482 28,500 1,632 Climbing Miami Center
Fri 01:04:35 PM 26.1556 -83.1019 277° West 420 483 29,900 1,016 Climbing Miami Center
Fri 01:05:37 PM 26.1792 -83.2392 281° West 447 514 30,600 1,161 Climbing Miami Center
Fri 01:06:39 PM 26.2039 -83.3783 281° West 456 525 32,300 1,645 Climbing Miami Center
Fri 01:07:41 PM 26.2381 -83.5117 286° West 456 525 34,000 1,984 Climbing Miami Center
Fri 01:08:43 PM 26.3083 -83.6569 298° West 445 512 36,400 2,129 Climbing Miami Center
Fri 01:09:45 PM 26.3653 -83.7761 298° West 441 507 38,400 1,694 Climbing Miami Center
Fri 01:10:47 PM 26.4200 -83.8878 299° West 420 483 39,900 774 Climbing Miami Center
Fri 01:11:49 PM 26.4753 -84.0047 298° West 420 483 40,000 48 Climbing Miami Center
Fri 01:12:51 PM 26.5322 -84.1250 298° West 433 498 40,000  Level Miami Center
Fri 01:13:53 PM 26.5889 -84.2453 298° West 434 499 40,000  Level Miami Center
Fri 01:14:55 PM 26.6464 -84.3956 293° West 436 502 40,000  Level Miami Center
Fri 01:15:57 PM 26.6950 -84.5217 293° West 437 503 40,000  Level Miami Center
Fri 01:16:59 PM 26.7525 -84.6400 299° West 437 503 40,000  Level Miami Center
Fri 01:18:00 PM 26.8200 -84.7379 308° West  Level FlightAware Approximate
Fri 01:18:01 PM 26.8097 -84.7600 308° West 437 503 40,000  Level Miami Center
Fri 01:19:04 PM 26.8658 -84.8792 298° West 437 503 40,000  Level Miami Center
Fri 01:20:06 PM 26.9225 -84.9997 298° West 435 501 40,000  Level Miami Center
Fri 01:21:08 PM 26.9906 -85.1442 298° West 435 501 40,000  Level Miami Center
Fri 01:22:15 PM 27.0408 -85.2664 295° West 434 499 40,000  Level Houston Center
Fri 01:23:17 PM 27.0781 -85.3964 288° West 436 502 40,000  Level Houston Center
Fri 01:24:19 PM 27.1208 -85.5286 290° West 435 501 40,000  Level Houston Center
Fri 01:25:16 PM 27.1586 -85.6644 287° West 437 503 40,000  Level Jacksonville Center
Fri 01:26:16 PM 27.2017 -85.7961 290° West 448 516 40,000  Level Jacksonville Center
Fri 01:27:16 PM 27.2406 -85.9161 290° West 442 509 40,000  Level Jacksonville Center
Fri 01:28:16 PM 27.2811 -86.0481 289° West 441 507 40,000  Level Jacksonville Center
Fri 01:29:16 PM 27.3219 -86.1731 290° West 434 499 40,000  Level Jacksonville Center
Fri 01:30:16 PM 27.3622 -86.3050 289° West 439 505 40,000  Level Jacksonville Center
Fri 01:31:16 PM 27.4025 -86.4372 289° West 450 518 40,000  Level Jacksonville Center
Fri 01:32:16 PM 27.4408 -86.5578 290° West 443 510 40,000  Level Jacksonville Center
Fri 01:33:16 PM 27.4844 -86.7019 289° West 451 519 40,000  Level Jacksonville Center
Fri 01:34:16 PM 27.5225 -86.8250 289° West 433 498 40,000  Level Jacksonville Center
Fri 01:35:16 PM 27.5622 -86.9575 289° West 431 496 40,000  Level Jacksonville Center
Fri 01:36:16 PM 27.6000 -87.0853 288° West 436 502 40,000  Level Jacksonville Center
Fri 01:37:16 PM 27.6433 -87.2231 290° West 436 502 40,000  Level Jacksonville Center
Fri 01:37:47 PM 27.6611 -87.2817 289° West 431 496 40,000  Level Houston Center
Fri 01:38:50 PM 27.6997 -87.4086 289° West 431 496 40,000  Level Houston Center
Fri 01:39:52 PM 27.7381 -87.5375 289° West 431 496 40,000  Level Houston Center
Fri 01:40:54 PM 27.7772 -87.6681 289° West 433 498 40,000  Level Houston Center
Fri 01:41:56 PM 27.8153 -87.7975 288° West 434 499 40,000  Level Houston Center
Fri 01:42:58 PM 27.8561 -87.9358 288° West 433 498 40,000  Level Houston Center
Fri 01:44:00 PM 27.8989 -88.0800 289° West 433 498 40,000  Level Houston Center
Fri 01:45:03 PM 27.9317 -88.1936 288° West 433 498 40,000  Level Houston Center
Fri 01:46:06 PM 27.9761 -88.3467 288° West 430 495 40,000  Level Houston Center
Fri 01:47:07 PM 28.0133 -88.4744 288° West 430 495 40,000  Level Houston Center
Fri 01:48:09 PM 28.0500 -88.6036 288° West 430 495 40,000  Level Houston Center
Fri 01:49:11 PM 28.0872 -88.7297 289° West 429 494 40,000  Level Houston Center
Fri 01:50:13 PM 28.1242 -88.8567 288° West 426 490 40,000  Level Houston Center
Fri 01:51:15 PM 28.1600 -88.9847 288° West 426 490 40,000  Level Houston Center
Fri 01:52:18 PM 28.2031 -89.1386 288° West 426 490 40,000  Level Houston Center
Fri 01:53:20 PM 28.2400 -89.2658 288° West 426 490 40,000  Level Houston Center
Fri 01:54:22 PM 28.2858 -89.3925 292° West 431 496 40,000  Level Houston Center
Fri 01:55:24 PM 28.3331 -89.5194 293° West 432 497 40,000  Level Houston Center
Fri 01:56:26 PM 28.3867 -89.6442 296° West 434 499 40,000  Level Houston Center
Fri 01:57:29 PM 28.4381 -89.7708 295° West 438 504 40,000  Level Houston Center
Fri 01:58:31 PM 28.5028 -89.9206 296° West 439 505 40,000  Level Houston Center
Fri 01:59:33 PM 28.5575 -90.0442 297° West 439 505 40,000  Level Houston Center
Fri 02:00:35 PM 28.6125 -90.1683 297° West 439 505 40,000  Level Houston Center
Fri 02:01:37 PM 28.6647 -90.2947 295° West 439 505 40,000  Level Houston Center
Fri 02:02:39 PM 28.7175 -90.4197 296° West 439 505 40,000  Level Houston Center
Fri 02:03:42 PM 28.7689 -90.5467 295° West 439 505 40,000  Level Houston Center
Fri 02:04:44 PM 28.8311 -90.7011 295° West 440 506 40,000  Level Houston Center
Fri 02:05:46 PM 28.8822 -90.8283 295° West 442 509 40,000  Level Houston Center
Fri 02:06:48 PM 28.9319 -90.9586 294° West 444 511 40,000  Level Houston Center
Fri 02:07:50 PM 28.9817 -91.0894 294° West 446 513 40,000  Level Houston Center
Fri 02:08:52 PM 29.0297 -91.2211 293° West 448 516 40,000  Level Houston Center
Fri 02:09:55 PM 29.0644 -91.3606 286° West 454 522 40,000  Level Houston Center
Fri 02:10:57 PM 29.1050 -91.5286 285° West 456 525 40,000  Level Houston Center
Fri 02:11:59 PM 29.1397 -91.6692 286° West 459 528 40,000  Level Houston Center
Fri 02:13:01 PM 29.1736 -91.8067 286° West 461 531 40,000  Level Houston Center
Fri 02:14:03 PM 29.2075 -91.9478 285° West 461 531 40,000  Level Houston Center
Fri 02:15:05 PM 29.2417 -92.0906 285° West 461 531 40,000  Level Houston Center
Fri 02:16:08 PM 29.2833 -92.2603 286° West 463 533 40,000  Level Houston Center
Fri 02:17:10 PM 29.3164 -92.4036 285° West 463 533 40,000  Level Houston Center
Fri 02:18:12 PM 29.3508 -92.5453 286° West 463 533 40,000  Level Houston Center
Fri 02:19:14 PM 29.3847 -92.6892 285° West 464 534 40,000  Level Houston Center
Fri 02:20:16 PM 29.4186 -92.8322 285° West 464 534 40,000  Level Houston Center
Fri 02:21:18 PM 29.4517 -92.9756 285° West 464 534 40,000  Level Houston Center
Fri 02:22:21 PM 29.4922 -93.1467 285° West 464 534 40,000  Level Houston Center
Fri 02:23:23 PM 29.5253 -93.2883 285° West 463 533 40,000  Level Houston Center
Fri 02:24:25 PM 29.5583 -93.4333 285° West 464 534 40,000  Level Houston Center
Fri 02:25:27 PM 29.5914 -93.5764 285° West 464 534 40,000  Level Houston Center
Fri 02:26:29 PM 29.6244 -93.7186 285° West 462 532 40,000  Level Houston Center
Fri 02:27:31 PM 29.6564 -93.8614 284° West 461 531 40,000  Level Houston Center
Fri 02:28:33 PM 29.6956 -94.0333 285° West 462 532 40,000  Level Houston Center
Fri 02:29:36 PM 29.7275 -94.1767 284° West 461 531 40,000  Level Houston Center
Fri 02:30:38 PM 29.7608 -94.3253 285° West 462 532 40,000  Level Houston Center
Fri 02:31:40 PM 29.7922 -94.4683 284° West 462 532 40,000  Level Houston Center
Fri 02:32:42 PM 29.8236 -94.6119 284° West 462 532 40,000  Level Houston Center
Fri 02:33:44 PM 29.8544 -94.7525 284° West 461 531 40,000  Level Houston Center
Fri 02:34:46 PM 29.8911 -94.9225 284° West 461 531 40,000  Level Houston Center
Fri 02:35:48 PM 29.9225 -95.0633 284° West 461 531 40,000  Level Houston Center
Fri 02:36:51 PM 29.9533 -95.2042 284° West 461 531 40,000  Level Houston Center
Fri 02:37:53 PM 29.9831 -95.3458 284° West 461 531 40,000  Level Houston Center
Fri 02:38:55 PM 30.0122 -95.4869 283° West 460 529 40,000  Level Houston Center
Fri 02:39:57 PM 30.0483 -95.6578 284° West 460 529 40,000  Level Houston Center
Fri 02:40:59 PM 30.0783 -95.7986 284° West 459 528 40,000  Level Houston Center
Fri 02:42:01 PM 30.1086 -95.9419 284° West 459 528 40,000  Level Houston Center
Fri 02:43:03 PM 30.1408 -96.0992 283° West 459 528 40,000  Level Houston Center
Fri 02:44:05 PM 30.1694 -96.2428 283° West 459 528 40,000  Level Houston Center
Fri 02:46:10 PM 30.2281 -96.5275 283° West 458 527 40,000  Level Houston Center
Fri 02:47:12 PM 30.2581 -96.6714 284° West 458 527 40,000  Level Houston Center
Fri 02:48:14 PM 30.2869 -96.8136 283° West 458 527 40,000  Level Houston Center
Fri 02:49:16 PM 30.3200 -96.9858 283° West 455 524 40,000  Level Houston Center
Fri 02:50:18 PM 30.3486 -97.1306 283° West 455 524 40,000  Level Houston Center
Fri 02:51:20 PM 30.3769 -97.2744 283° West 456 525 40,000  Level Houston Center
Fri 02:52:23 PM 30.4044 -97.4164 283° West 454 522 40,000  Level Houston Center
Fri 02:53:25 PM 30.4328 -97.5597 283° West 454 522 40,000  Level Houston Center
Fri 02:54:27 PM 30.4603 -97.7019 283° West 453 521 40,000  Level Houston Center
Fri 02:55:29 PM 30.4878 -97.8444 283° West 452 520 40,000  Level Houston Center
Fri 02:56:31 PM 30.5208 -98.0139 283° West 449 517 40,000  Level Houston Center
Fri 02:57:33 PM 30.5478 -98.1528 283° West 448 516 40,000  Level Houston Center
Fri 02:58:35 PM 30.5747 -98.2953 282° West 448 516 40,000  Level Houston Center
Fri 02:59:38 PM 30.6022 -98.4353 283° West 448 516 40,000  Level Houston Center
Fri 03:00:40 PM 30.6275 -98.5772 282° West 448 516 40,000  Level Houston Center
Fri 03:01:42 PM 30.6539 -98.7175 282° West 447 514 40,000  Level Houston Center
Fri 03:02:44 PM 30.6856 -98.8864 282° West 447 514 40,000  Level Houston Center
Fri 03:03:46 PM 30.7111 -99.0283 282° West 447 514 40,000  Level Houston Center
Fri 03:04:48 PM 30.7369 -99.1642 283° West 447 514 40,000  Level Houston Center
Fri 03:05:50 PM 30.7614 -99.3050 281° West 447 514 40,000  Level Houston Center
Fri 03:06:53 PM 30.7919 -99.4736 282° West 447 514 40,000  Level Houston Center
Fri 03:07:55 PM 30.8161 -99.6131 281° West 444 511 40,000  Level Houston Center
Fri 03:08:57 PM 30.8422 -99.7528 282° West 444 511 40,000  Level Houston Center
Fri 03:09:59 PM 30.8667 -99.8931 282° West 444 511 40,000  Level Houston Center
Fri 03:11:01 PM 30.8906 -100.0325 281° West 444 511 40,000  Level Houston Center
Fri 03:12:03 PM 30.9192 -100.2003 281° West 444 511 40,000  Level Houston Center
Fri 03:13:05 PM 30.9439 -100.3397 282° West 443 510 40,000  Level Houston Center
Fri 03:14:08 PM 30.9681 -100.4792 281° West 443 510 40,000  Level Houston Center
Fri 03:15:10 PM 30.9908 -100.6194 281° West 443 510 40,000  Level Houston Center
Fri 03:16:12 PM 31.0153 -100.7600 282° West 443 510 40,000  Level Houston Center
Fri 03:17:14 PM 31.0428 -100.9289 281° West 443 510 40,000  Level Houston Center
Fri 03:18:16 PM 31.0664 -101.0694 281° West 443 510 40,000  Level Houston Center
Fri 03:19:18 PM 31.0903 -101.2103 281° West 443 510 40,000  Level Houston Center
Fri 03:20:21 PM 31.1136 -101.3556 281° West 443 510 40,000  Level Houston Center
Fri 03:21:23 PM 31.1361 -101.4975 281° West 443 510 40,000  Level Houston Center
Fri 03:22:25 PM 31.1589 -101.6392 281° West 443 510 40,000  Level Houston Center
Fri 03:23:27 PM 31.1817 -101.7800 281° West 443 510 40,000  Level Houston Center
Fri 03:24:29 PM 31.2083 -101.9489 281° West 443 510 40,000  Level Houston Center
Fri 03:25:31 PM 31.2308 -102.0897 281° West 443 510 40,000  Level Houston Center
Fri 03:26:36 PM 31.2511 -102.2328 279° West 446 513 40,000  Level Albuquerque Center
Fri 03:27:38 PM 31.2725 -102.3736 280° West 445 512 40,000  Level Albuquerque Center
Fri 03:28:40 PM 31.2972 -102.5317 280° West 444 511 40,000  Level Albuquerque Center
Fri 03:29:42 PM 31.3181 -102.6731 280° West 443 510 40,000  Level Albuquerque Center
Fri 03:30:44 PM 31.3403 -102.8128 281° West 441 507 40,000  Level Albuquerque Center
Fri 03:31:46 PM 31.3644 -102.9800 280° West 440 506 40,000  Level Albuquerque Center
Fri 03:32:48 PM 31.3858 -103.1197 280° West 440 506 40,000  Level Albuquerque Center
Fri 03:34:52 PM 31.4267 -103.3975 280° West 437 503 40,000  Level Albuquerque Center
Fri 03:35:54 PM 31.4469 -103.5353 280° West 436 502 40,000  Level Albuquerque Center
Fri 03:36:56 PM 31.4656 -103.6731 279° West 433 498 40,000  Level Albuquerque Center
Fri 03:37:58 PM 31.4872 -103.8169 280° West 432 497 40,000  Level Albuquerque Center
Fri 03:39:00 PM 31.5072 -103.9550 280° West 432 497 40,000  Level Albuquerque Center
Fri 03:40:02 PM 31.5308 -104.1197 280° West 432 497 40,000  Level Albuquerque Center
Fri 03:41:04 PM 31.5506 -104.2572 280° West 432 497 40,000  Level Albuquerque Center
Fri 03:42:07 PM 31.5692 -104.3947 279° West 431 496 40,000  Level Albuquerque Center
Fri 03:43:09 PM 31.5886 -104.5311 280° West 431 496 40,000  Level Albuquerque Center
Fri 03:44:11 PM 31.6072 -104.6681 279° West 430 495 40,000  Level Albuquerque Center
Fri 03:45:13 PM 31.6289 -104.8328 279° West 430 495 40,000  Level Albuquerque Center
Fri 03:46:15 PM 31.6483 -104.9700 279° West 430 495 40,000  Level Albuquerque Center
Fri 03:47:17 PM 31.6672 -105.1069 279° West 429 494 40,000  Level Albuquerque Center
Fri 03:48:19 PM 31.6844 -105.2461 278° West 430 495 40,000  Level Albuquerque Center
Fri 03:49:21 PM 31.7019 -105.3806 279° West 427 491 40,000  Level Albuquerque Center
Fri 03:50:23 PM 31.7231 -105.5428 279° West 424 488 40,000  Level Albuquerque Center
Fri 03:51:25 PM 31.7406 -105.6778 279° West 423 487 40,000  Level Albuquerque Center
Fri 03:54:32 PM 31.7906 -106.0756 278° West 410 472 40,000  Level Albuquerque Center
Fri 03:55:34 PM 31.8114 -106.2314 279° West 405 466 40,000  Level Albuquerque Center
Fri 03:56:36 PM 31.8344 -106.3667 281° West 418 481 40,000  Level Albuquerque Center
Fri 03:57:38 PM 31.8683 -106.4931 288° West 414 476 40,000  Level Albuquerque Center
Fri 03:58:40 PM 31.9031 -106.6308 287° West 412 474 40,000  Level Albuquerque Center
Fri 03:59:42 PM 31.9344 -106.7586 286° West 412 474 40,000  Level Albuquerque Center
Fri 04:00:44 PM 31.9661 -106.8881 286° West 411 473 40,000  Level Albuquerque Center
Fri 04:01:46 PM 31.9969 -107.0192 286° West 411 473 40,000  Level Albuquerque Center
Fri 04:02:48 PM 32.0281 -107.1517 286° West 413 475 40,000  Level Albuquerque Center
Fri 04:03:50 PM 32.0661 -107.3114 286° West 415 478 40,000  Level Albuquerque Center
Fri 04:04:52 PM 32.0975 -107.4433 286° West 415 478 40,000  Level Albuquerque Center
Fri 04:05:54 PM 32.1281 -107.5753 285° West 415 478 40,000  Level Albuquerque Center
Fri 04:06:56 PM 32.1594 -107.7067 286° West 415 478 40,000  Level Albuquerque Center
Fri 04:07:59 PM 32.1892 -107.8394 285° West 415 478 40,000  Level Albuquerque Center
Fri 04:09:01 PM 32.2206 -107.9714 286° West 415 478 40,000  Level Albuquerque Center
Fri 04:10:03 PM 32.2519 -108.1028 286° West 415 478 40,000  Level Albuquerque Center
Fri 04:11:05 PM 32.2872 -108.2592 285° West 415 478 40,000  Level Albuquerque Center
Fri 04:12:07 PM 32.3175 -108.3900 285° West 415 478 40,000  Level Albuquerque Center
Fri 04:13:09 PM 32.3456 -108.5153 285° West 414 476 40,000  Level Albuquerque Center
Fri 04:14:11 PM 32.3747 -108.6447 285° West 413 475 40,000  Level Albuquerque Center
Fri 04:15:13 PM 32.4047 -108.7750 285° West 411 473 40,000  Level Albuquerque Center
Fri 04:16:15 PM 32.4567 -108.9261 292° West 411 473 40,000  Level Albuquerque Center
Fri 04:17:17 PM 32.5044 -109.0506 295° West 411 473 40,000  Level Albuquerque Center
Fri 04:18:19 PM 32.5506 -109.1764 294° West 411 473 40,000  Level Albuquerque Center
Fri 04:19:21 PM 32.5981 -109.3022 294° West 413 475 40,000  Level Albuquerque Center
Fri 04:20:23 PM 32.6383 -109.4297 291° West 414 476 40,000  Level Albuquerque Center
Fri 04:21:25 PM 32.6811 -109.5575 292° West 417 480 40,000  Level Albuquerque Center
Fri 04:22:27 PM 32.7294 -109.6828 295° West 416 479 40,000  Level Albuquerque Center
Fri 04:23:29 PM 32.7622 -109.8144 287° West 416 479 40,000  Level Albuquerque Center
Fri 04:24:31 PM 32.8000 -109.9706 286° West 413 475 40,000  Level Albuquerque Center
Fri 04:25:33 PM 32.8319 -110.0997 286° West 413 475 40,000  Level Albuquerque Center
Fri 04:26:36 PM 32.8631 -110.2306 286° West 412 474 40,000  Level Albuquerque Center
Fri 04:27:38 PM 32.8939 -110.3592 286° West 411 473 40,000  Level Albuquerque Center
Fri 04:28:40 PM 32.9256 -110.4861 287° West 406 467 40,000  Level Albuquerque Center
Fri 04:29:42 PM 32.9547 -110.6164 285° West 406 467 40,000  Level Albuquerque Center
Fri 04:30:44 PM 32.9881 -110.7561 286° West 406 467 40,000  Level Albuquerque Center
Fri 04:31:46 PM 33.0181 -110.8850 286° West 406 467 40,000  Level Albuquerque Center
Fri 04:32:48 PM 33.0547 -111.0375 286° West 399 459 40,000  Level Albuquerque Center
Fri 04:33:50 PM 33.0847 -111.1669 285° West 400 460 40,000  Level Albuquerque Center
Fri 04:34:52 PM 33.1144 -111.2981 285° West 407 468 40,000  Level Albuquerque Center
Fri 04:35:54 PM 33.1444 -111.4261 286° West 401 461 40,000  Level Albuquerque Center
Fri 04:36:56 PM 33.1733 -111.5564 285° West 402 463 40,000  Level Albuquerque Center
Fri 04:37:59 PM 33.2025 -111.6858 285° West 402 463 40,000  Level Albuquerque Center
Fri 04:39:01 PM 33.2381 -111.8422 285° West 403 464 40,000  Level Albuquerque Center
Fri 04:40:03 PM 33.2667 -111.9725 285° West 403 464 40,000  Level Albuquerque Center
Fri 04:41:05 PM 33.2956 -112.1025 285° West 403 464 40,000  Level Albuquerque Center
Fri 04:42:07 PM 33.3247 -112.2331 285° West 403 464 40,000  Level Albuquerque Center
Fri 04:43:09 PM 33.3536 -112.3667 285° West 408 470 40,000  Level Albuquerque Center
Fri 04:44:11 PM 33.3822 -112.4981 285° West 408 470 40,000  Level Albuquerque Center
Fri 04:45:13 PM 33.4133 -112.6375 285° West 408 470 40,000 -339 Level Albuquerque Center
Fri 04:46:15 PM 33.4411 -112.7692 284° West 409 471 39,300 -1,016 Descending Albuquerque Center
Fri 04:47:17 PM 33.4697 -112.9331 282° West 417 480 37,900 -1,258 Descending Albuquerque Center
Fri 04:48:19 PM 33.4864 -113.0756 278° West 429 494 36,700 -1,161 Descending Albuquerque Center
Fri 04:49:21 PM 33.5053 -113.2211 279° West 439 505 35,500 -1,113 Descending Albuquerque Center
Fri 04:50:23 PM 33.5244 -113.3683 279° West 444 511 34,400 -726 Descending Albuquerque Center
Fri 04:51:25 PM 33.5419 -113.5169 278° West 449 517 34,000 -194 Descending Albuquerque Center
Fri 04:52:27 PM 33.5603 -113.6647 279° West 450 518 34,000  Level Albuquerque Center
Fri 04:53:29 PM 33.5839 -113.8458 279° West 455 524 34,000  Level Albuquerque Center
Fri 04:54:31 PM 33.6011 -113.9939 278° West 455 524 34,000  Level Albuquerque Center
Fri 04:55:33 PM 33.6178 -114.1444 278° West 455 524 34,000  Level Albuquerque Center
Fri 04:56:25 PM 33.6333 -114.2653 279° West 456 525 34,000  Level Los Angeles Center
Fri 04:57:27 PM 33.6503 -114.4153 278° West 456 525 34,000  Level Los Angeles Center
Fri 04:58:29 PM 33.6739 -114.5972 279° West 457 526 34,000  Level Los Angeles Center
Fri 04:59:31 PM 33.6894 -114.7472 277° West 457 526 34,000  Level Los Angeles Center
Fri 05:00:34 PM 33.7067 -114.8978 278° West 457 526 34,000  Level Los Angeles Center
Fri 05:01:36 PM 33.7233 -115.0469 278° West 457 526 34,000  Level Los Angeles Center
Fri 05:02:38 PM 33.7403 -115.1964 278° West 457 526 34,000  Level Los Angeles Center
Fri 05:03:40 PM 33.7603 -115.3758 278° West 456 525 34,000  Level Los Angeles Center
Fri 05:04:42 PM 33.7764 -115.5233 278° West 453 521 34,000  Level Los Angeles Center
Fri 05:05:45 PM 33.7919 -115.6703 277° West 451 519 34,000  Level Los Angeles Center
Fri 05:06:47 PM 33.8086 -115.8189 278° West 448 516 34,000  Level Los Angeles Center
Fri 05:07:49 PM 33.8233 -115.9686 277° West 451 519 34,000 -290 Level Los Angeles Center
Fri 05:08:51 PM 33.8425 -116.1475 277° West 451 519 33,400 -1,403 Descending Los Angeles Center
Fri 05:09:53 PM 33.8572 -116.3003 277° West 455 524 31,100 -3,360 Descending Los Angeles Center
Fri 05:10:56 PM 33.8725 -116.4503 277° West 455 524 26,400 -5,280 Descending Los Angeles Center
Fri 05:11:58 PM 33.8792 -116.6261 273° West 459 528 20,100 -5,032 Descending Los Angeles Center
Fri 05:13:00 PM 33.8856 -116.7678 273° West 433 498 16,000 -3,145 Descending Los Angeles Center
Fri 05:14:02 PM 33.8761 -116.9069 265° West 401 461 13,600 -1,887 Descending Los Angeles Center
Fri 05:15:04 PM 33.8544 -117.0431 259° West 393 452 12,100 -1,485 Descending Los Angeles Center
Fri 05:15:43 PM 33.8333 -117.1333 254° West 384 442 11,100 -1,455 Descending Southern California TRACON
Fri 05:16:43 PM 33.8167 -117.2333 259° West 310 357 9,700 -1,450 Descending Southern California TRACON
Fri 05:17:43 PM 33.8167 -117.3167 270° West 274 315 8,200 -850 Descending Southern California TRACON
Fri 05:18:43 PM 33.8000 -117.4000 256° West 261 300 8,000 -133 Descending Southern California TRACON
Fri 05:19:13 PM 33.7881 -117.4467 253° West 268 308 8,000 -323 Level Los Angeles Center
Fri 05:20:16 PM 33.7792 -117.5186 262° West 233 268 7,500 -672 Descending Los Angeles Center
Fri 05:21:18 PM 33.7808 -117.5875 272° West 213 245 6,600 -581 Descending Los Angeles Center
Fri 05:22:20 PM 33.8000 -117.6450 292° West 196 226 6,300 -629 Descending Los Angeles Center
Fri 05:23:22 PM 33.8231 -117.7022 296° West 192 221 5,300 -1,056 Descending Los Angeles Center
Fri 05:24:25 PM 33.8314 -117.7728 278° West 189 217 4,100 -1,392 Descending Los Angeles Center
Fri 05:25:27 PM 33.7881 -117.7964 204° Southwest 181 208 2,400 -1,210 Descending Los Angeles Center
Fri 05:26:29 PM 33.7494 -117.8217 209° Southwest 169 194 1,600 -774 Descending Los Angeles Center
Fri 05:27:31 PM 33.7150 -117.8428 207° Southwest 154 177 800 -726 Descending Los Angeles Center
Fri 05:28:33 PM 33.6822 -117.8633 208° Southwest 143 165 100 -677 Descending Los Angeles Center
Fri 05:30:00 PM 33.6757 -117.8682 132° Southeast  Level Estimated

Login

Don't have an account? Register now (free) for customized features, flight alerts, and more!